createdAt,value
2023-04-04T00:02:03.963Z,100944.13
2023-04-04T00:07:05.646Z,100942.16
2023-04-04T00:12:07.496Z,100937.72
2023-04-04T00:17:09.129Z,100931.19
2023-04-04T00:22:10.762Z,100930.38
2023-04-04T00:27:12.366Z,100918.97
2023-04-04T00:32:14.171Z,100921.59
2023-04-04T00:37:15.811Z,100919.72
2023-04-04T00:42:18.077Z,100918.88
2023-04-04T00:47:24.677Z,100916.19
2023-04-04T00:52:27.271Z,100910.41
2023-04-04T00:57:29.989Z,100912.97
2023-04-04T01:02:31.959Z,100903.66
2023-04-04T01:07:37.116Z,100896.69
2023-04-04T01:12:40.574Z,100902.47
2023-04-04T01:17:43.649Z,100905.56
2023-04-04T01:22:49.318Z,100901.88
2023-04-04T01:27:52.231Z,100899.34
2023-04-04T01:33:33.860Z,100901.41
2023-04-04T01:38:58.585Z,100886.66
2023-04-04T01:44:02.252Z,100885.03
2023-04-04T01:49:04.130Z,100886.88
2023-04-04T01:54:09.222Z,100882.28
2023-04-04T01:59:11.495Z,100877.41
2023-04-04T02:04:14.550Z,100867.19
2023-04-04T02:09:16.270Z,100864.28
2023-04-04T02:14:18.065Z,100868.59
2023-04-04T02:19:20.662Z,100861.66
2023-04-04T02:24:22.571Z,100859.63
2023-04-04T02:29:24.231Z,100860.72
2023-04-04T02:34:25.847Z,100860.47
2023-04-04T02:39:27.956Z,100863.84
2023-04-04T02:44:30.500Z,100857.84
2023-04-04T02:49:32.627Z,100855.97
2023-04-04T02:54:34.399Z,100854.22
2023-04-04T02:59:38.014Z,100850.47
2023-04-04T03:04:39.631Z,100854.69
2023-04-04T03:09:45.123Z,100849.91
2023-04-04T03:14:46.958Z,100854.03
2023-04-04T03:19:49.053Z,100851.13
2023-04-04T03:24:51.269Z,100850.41
2023-04-04T03:29:54.360Z,100845.59
2023-04-04T03:34:56.601Z,100853.00
2023-04-04T03:39:58.208Z,100849.41
2023-04-04T03:44:59.869Z,100843.72
2023-04-04T03:50:06.835Z,100840.72
2023-04-04T03:55:11.370Z,100844.28
2023-04-04T04:00:13.298Z,100837.22
2023-04-04T04:05:14.858Z,100835.38
2023-04-04T04:10:17.086Z,100844.28
2023-04-04T04:15:18.787Z,100846.31
2023-04-04T04:20:21.423Z,100846.59
2023-04-04T04:25:27.079Z,100850.59
2023-04-04T04:30:39.803Z,100848.47
2023-04-04T04:35:42.224Z,100852.56
2023-04-04T04:40:44.522Z,100852.41
2023-04-04T04:45:53.028Z,100853.63
2023-04-04T04:50:54.665Z,100851.53
2023-04-04T04:56:12.106Z,100843.75
2023-04-04T05:01:17.815Z,100852.53
2023-04-04T05:06:19.648Z,100855.91
2023-04-04T05:11:21.908Z,100862.53
2023-04-04T05:16:23.783Z,100862.13
2023-04-04T05:21:28.076Z,100870.50
2023-04-04T05:26:31.512Z,100868.59
2023-04-04T05:31:33.337Z,100882.19
2023-04-04T05:36:40.263Z,100876.94
2023-04-04T05:41:41.983Z,100879.84
2023-04-04T05:46:48.823Z,100884.41
2023-04-04T05:51:51.101Z,100889.00
2023-04-04T05:56:54.089Z,100891.66
2023-04-04T06:02:18.690Z,100894.72
2023-04-04T06:07:31.431Z,100896.59
2023-04-04T06:12:33.186Z,100900.81
2023-04-04T06:17:35.774Z,100895.00
2023-04-04T06:22:37.559Z,100890.75
2023-04-04T06:27:40.289Z,100889.28
2023-04-04T06:32:43.042Z,100891.81
2023-04-04T06:37:55.872Z,100875.78
2023-04-04T06:42:58.966Z,100880.16
2023-04-04T06:48:06.612Z,100889.09
2023-04-04T06:53:08.794Z,100882.13
2023-04-04T06:58:10.483Z,100869.75
2023-04-04T07:03:12.272Z,100876.38
2023-04-04T07:08:14.371Z,100866.50
2023-04-04T07:13:15.982Z,100875.06
2023-04-04T07:18:17.647Z,100878.56
2023-04-04T07:23:19.255Z,100863.13
2023-04-04T07:28:20.980Z,100870.28
2023-04-04T07:33:22.596Z,100866.19
2023-04-04T07:38:24.226Z,100865.75
2023-04-04T07:43:25.929Z,100870.47
2023-04-04T07:48:28.013Z,100870.03
2023-04-04T07:53:29.674Z,100869.81
2023-04-04T07:58:31.299Z,100874.44
2023-04-04T08:03:33.048Z,100866.88
2023-04-04T08:08:34.826Z,100870.19
2023-04-04T08:13:36.891Z,100864.88
2023-04-04T08:18:38.781Z,100869.47
2023-04-04T08:23:40.506Z,100865.97
2023-04-04T08:28:42.127Z,100854.66
2023-04-04T08:33:47.638Z,100843.91
2023-04-04T08:38:49.668Z,100849.09
2023-04-04T08:43:54.870Z,100839.94
2023-04-04T08:48:58.727Z,100852.31
2023-04-04T08:54:02.235Z,100844.09
2023-04-04T08:59:04.025Z,100847.00
2023-04-04T09:04:06.454Z,100829.81
2023-04-04T09:09:09.156Z,100827.03
2023-04-04T09:14:10.815Z,100828.94
2023-04-04T09:19:13.058Z,100821.72
2023-04-04T09:24:15.982Z,100829.81
2023-04-04T09:29:19.776Z,100821.38
2023-04-04T09:34:21.699Z,100829.91
2023-04-04T09:39:23.733Z,100826.09
2023-04-04T09:44:25.910Z,100817.63
2023-04-04T09:49:27.791Z,100833.38
2023-04-04T09:54:31.238Z,100831.28
2023-04-04T09:59:34.156Z,100835.44
2023-04-04T10:04:36.032Z,100829.91
2023-04-04T10:09:38.215Z,100822.19
2023-04-04T10:14:39.861Z,100823.81
2023-04-04T10:19:42.430Z,100809.38
2023-04-04T10:24:44.067Z,100814.06
2023-04-04T10:29:46.050Z,100823.88
2023-04-04T10:35:01.879Z,100810.53
2023-04-04T10:40:06.616Z,100808.38
2023-04-04T10:45:20.394Z,100805.34
2023-04-04T10:50:23.069Z,100787.50
2023-04-04T10:55:25.040Z,100794.59
2023-04-04T11:00:27.254Z,100800.66
2023-04-04T11:05:40.951Z,100793.16
2023-04-04T11:10:48.388Z,100789.06
2023-04-04T11:15:57.773Z,100791.88
2023-04-04T11:21:05.239Z,100779.59
2023-04-04T11:26:07.567Z,100771.88
2023-04-04T11:31:18.709Z,100764.59
2023-04-04T11:36:41.645Z,100749.72
2023-04-04T11:42:14.089Z,100759.09
2023-04-04T11:47:19.776Z,100757.78
2023-04-04T11:52:23.752Z,100739.72
2023-04-04T11:57:25.396Z,100737.03
2023-04-04T12:02:29.783Z,100748.28
2023-04-04T12:07:31.563Z,100747.56
2023-04-04T12:12:37.925Z,100737.59
2023-04-04T12:17:40.749Z,100735.53
2023-04-04T12:22:43.092Z,100724.53
2023-04-04T12:27:45.168Z,100726.63
2023-04-04T12:32:49.653Z,100722.03
2023-04-04T12:38:02.825Z,100710.69
2023-04-04T12:43:06.124Z,100701.47
2023-04-04T12:48:14.954Z,100718.84
2023-04-04T12:53:27.996Z,100716.53
2023-04-04T12:58:31.326Z,100710.16
2023-04-04T13:03:33.952Z,100693.31
2023-04-04T13:08:35.805Z,100691.94
2023-04-04T13:13:40.761Z,100701.00
2023-04-04T13:18:44.298Z,100685.09
2023-04-04T13:23:46.312Z,100683.00
2023-04-04T13:28:48.064Z,100685.94
2023-04-04T13:33:49.689Z,100675.13
2023-04-04T13:38:51.536Z,100661.88
2023-04-04T13:43:53.210Z,100650.13
2023-04-04T13:48:54.835Z,100670.59
2023-04-04T13:53:56.497Z,100661.63
2023-04-04T13:58:58.144Z,100657.88
2023-04-04T14:04:01.873Z,100646.41
2023-04-04T14:09:05.212Z,100636.22
2023-04-04T14:14:06.832Z,100636.91
2023-04-04T14:19:08.433Z,100640.03
2023-04-04T14:24:10.071Z,100641.63
2023-04-04T14:29:11.801Z,100629.91
2023-04-04T14:34:13.406Z,100631.38
2023-04-04T14:39:15.143Z,100633.03
2023-04-04T14:44:17.052Z,100632.69
2023-04-04T14:49:19.132Z,100624.78
2023-04-04T14:54:21.034Z,100626.63
2023-04-04T14:59:22.795Z,100617.19
2023-04-04T15:04:24.596Z,100619.25
2023-04-04T15:09:26.970Z,100611.22
2023-04-04T15:14:28.597Z,100622.41
2023-04-04T15:19:30.609Z,100624.25
2023-04-04T15:24:32.314Z,100621.78
2023-04-04T15:29:33.899Z,100614.28
2023-04-04T15:34:35.484Z,100619.34
2023-04-04T15:39:46.088Z,100604.94
2023-04-04T15:44:53.729Z,100605.00
2023-04-04T15:49:55.597Z,100612.25
2023-04-04T15:54:57.248Z,100603.03
2023-04-04T15:59:58.916Z,100603.75
2023-04-04T16:05:00.672Z,100597.72
2023-04-04T16:10:03.555Z,100601.03
2023-04-04T16:15:07.113Z,100602.31
2023-04-04T16:20:09.710Z,100600.69
2023-04-04T16:25:11.476Z,100595.28
2023-04-04T16:30:14.150Z,100600.97
2023-04-04T16:35:16.134Z,100599.72
2023-04-04T16:40:17.924Z,100599.00
2023-04-04T16:45:19.558Z,100597.56
2023-04-04T16:50:21.437Z,100587.56
2023-04-04T16:55:26.239Z,100588.31
2023-04-04T17:00:27.969Z,100590.03
2023-04-04T17:05:29.625Z,100582.25
2023-04-04T17:10:31.392Z,100575.44
2023-04-04T17:15:33.254Z,100574.72
2023-04-04T17:20:35.182Z,100578.72
2023-04-04T17:25:36.815Z,100577.50
2023-04-04T17:30:38.624Z,100581.25
2023-04-04T17:35:40.719Z,100582.78
2023-04-04T17:40:42.367Z,100585.94
2023-04-04T17:45:44.931Z,100578.34
2023-04-04T17:50:46.668Z,100588.53
2023-04-04T17:55:48.344Z,100595.06
2023-04-04T18:00:49.925Z,100582.72
2023-04-04T18:05:52.824Z,100582.22
2023-04-04T18:10:54.474Z,100588.03
2023-04-04T18:15:56.404Z,100587.94
2023-04-04T18:20:58.673Z,100590.94
2023-04-04T18:26:01.027Z,100587.25
2023-04-04T18:31:02.795Z,100591.16
2023-04-04T18:36:04.816Z,100596.00
2023-04-04T18:41:08.197Z,100597.69
2023-04-04T18:46:10.180Z,100600.78
2023-04-04T18:51:12.367Z,100597.72
2023-04-04T18:56:14.039Z,100603.34
2023-04-04T19:01:18.893Z,100605.69
2023-04-04T19:06:26.742Z,100606.66
2023-04-04T19:11:28.424Z,100601.13
2023-04-04T19:16:30.159Z,100599.94
2023-04-04T19:21:32.183Z,100601.78
2023-04-04T19:26:33.956Z,100595.88
2023-04-04T19:31:36.253Z,100604.91
2023-04-04T19:36:38.011Z,100601.84
2023-04-04T19:41:41.028Z,100596.41
2023-04-04T19:46:42.653Z,100593.06
2023-04-04T19:51:56.144Z,100593.25
2023-04-04T19:57:01.153Z,100601.72
2023-04-04T20:02:02.834Z,100595.78
2023-04-04T20:07:04.484Z,100599.72
2023-04-04T20:12:07.262Z,100603.22
2023-04-04T20:17:09.773Z,100600.22
2023-04-04T20:22:11.608Z,100601.31
2023-04-04T20:27:23.957Z,100595.03
2023-04-04T20:32:25.686Z,100591.75
2023-04-04T20:37:28.745Z,100593.78
2023-04-04T20:42:30.605Z,100587.38
2023-04-04T20:47:51.036Z,100591.63
2023-04-04T20:52:58.830Z,100600.41
2023-04-04T20:58:09.269Z,100606.91
2023-04-04T21:03:33.924Z,100603.69
2023-04-04T21:08:44.218Z,100608.25
2023-04-04T21:13:46.373Z,100612.38
2023-04-04T21:18:48.001Z,100605.16
2023-04-04T21:23:55.090Z,100592.72
2023-04-04T21:28:59.147Z,100595.16
2023-04-04T21:34:07.808Z,100587.91
2023-04-04T21:39:12.909Z,100585.88
2023-04-04T21:44:14.560Z,100581.06
2023-04-04T21:49:16.305Z,100580.75
2023-04-04T21:54:19.558Z,100582.38
2023-04-04T21:59:21.235Z,100579.72
2023-04-04T22:04:22.892Z,100575.50
2023-04-04T22:09:25.770Z,100581.84
2023-04-04T22:14:27.427Z,100587.00
2023-04-04T22:19:34.737Z,100569.03
2023-04-04T22:24:36.323Z,100560.34
2023-04-04T22:29:37.909Z,100560.84
2023-04-04T22:34:39.505Z,100563.91
2023-04-04T22:39:42.829Z,100564.84
2023-04-04T22:44:44.951Z,100554.16
2023-04-04T22:49:48.532Z,100558.97
2023-04-04T22:54:50.391Z,100558.00
2023-04-04T22:59:52.026Z,100560.75
2023-04-04T23:04:53.624Z,100559.22
2023-04-04T23:09:55.375Z,100556.13
2023-04-04T23:15:01.483Z,100557.28
2023-04-04T23:20:10.044Z,100552.94
2023-04-04T23:25:11.892Z,100552.25
2023-04-04T23:30:13.675Z,100545.56
2023-04-04T23:35:15.354Z,100544.03
2023-04-04T23:40:17.232Z,100554.31
2023-04-04T23:45:19.064Z,100543.22
2023-04-04T23:50:20.676Z,100528.78
2023-04-04T23:55:22.299Z,100531.34
